Time;durP1;ratioP1;P1;durP2;ratioP2;P2;SDS_P1;SDS_P2;PMS_P1;PMS_P2;Temp;Humidity;BMP_temperature;BMP_pressure;BME280_temperature;BME280_humidity;BME280_pressure;Samples;Min_cycle;Max_cycle;Signal;HPM_P1;HPM_P2
2023/09/06 00:00:42;;;;;;;;;;;20.70;99.90;;;;;;7331403;19;108507;-88
2023/09/06 00:03:10;;;;;;;;;;;20.70;99.90;;;;;;7336448;19;109294;-88
2023/09/06 00:05:41;;;;;;;;;;;20.60;99.90;;;;;;7337467;19;109417;-88
2023/09/06 00:08:10;;;;;;;;;;;20.60;99.90;;;;;;7330472;19;111127;-87
2023/09/06 00:10:40;;;;;;;;;;;20.60;99.90;;;;;;7331871;19;110378;-88
2023/09/06 00:13:08;;;;;;;;;;;20.60;99.90;;;;;;7329788;19;108699;-88
2023/09/06 00:15:35;;;;;;;;;;;20.50;99.90;;;;;;7332859;19;112065;-87
2023/09/06 00:18:05;;;;;;;;;;;20.50;99.90;;;;;;7325883;19;110862;-88
2023/09/06 00:20:39;;;;;;;;;;;20.50;99.90;;;;;;7331873;19;110852;-88
2023/09/06 00:23:09;;;;;;;;;;;20.40;99.90;;;;;;7327630;19;110215;-87
2023/09/06 00:25:40;;;;;;;;;;;20.40;99.90;;;;;;7329765;19;112042;-88
2023/09/06 00:28:08;;;;;;;;;;;20.30;99.90;;;;;;7333731;19;108412;-88
2023/09/06 00:30:35;;;;;;;;;;;20.30;99.90;;;;;;7327439;19;108780;-87
2023/09/06 00:33:03;;;;;;;;;;;20.30;99.90;;;;;;7326979;19;108975;-87
2023/09/06 00:35:31;;;;;;;;;;;20.30;99.90;;;;;;7327860;19;109317;-88
2023/09/06 00:38:05;;;;;;;;;;;20.30;99.90;;;;;;7326376;19;110557;-88
2023/09/06 00:40:36;;;;;;;;;;;20.20;99.90;;;;;;7326703;19;109209;-87
2023/09/06 00:43:04;;;;;;;;;;;20.30;99.90;;;;;;7321960;19;110327;-87
2023/09/06 00:45:39;;;;;;;;;;;20.20;99.90;;;;;;7325096;19;109578;-87
2023/09/06 00:48:07;;;;;;;;;;;20.20;99.90;;;;;;7329484;19;110078;-87
2023/09/06 00:50:36;;;;;;;;;;;20.10;99.90;;;;;;7328288;19;109595;-87
2023/09/06 00:53:05;;;;;;;;;;;20.10;99.90;;;;;;7326472;19;111716;-87
2023/09/06 00:55:33;;;;;;;;;;;20.10;99.90;;;;;;7327703;19;110112;-87
2023/09/06 00:58:01;;;;;;;;;;;20.00;99.90;;;;;;7332855;19;111532;-87
2023/09/06 01:00:28;;;;;;;;;;;20.00;99.90;;;;;;7337048;19;110136;-87
2023/09/06 01:02:56;;;;;;;;;;;20.00;99.90;;;;;;7330900;19;112223;-88
2023/09/06 01:05:25;;;;;;;;;;;19.90;99.90;;;;;;7335528;19;110220;-87
2023/09/06 01:07:55;;;;;;;;;;;19.90;99.90;;;;;;7336110;19;108603;-87
2023/09/06 01:10:23;;;;;;;;;;;19.80;99.90;;;;;;7339383;19;109218;-88
2023/09/06 01:12:55;;;;;;;;;;;19.70;99.90;;;;;;7332310;19;109508;-87
2023/09/06 01:15:22;;;;;;;;;;;19.70;99.90;;;;;;7334792;19;110444;-87
2023/09/06 01:17:51;;;;;;;;;;;19.60;99.90;;;;;;7334113;19;109582;-87
2023/09/06 01:20:20;;;;;;;;;;;19.60;99.90;;;;;;7325589;19;108808;-88
2023/09/06 01:23:04;;;;;;;;;;;19.60;99.90;;;;;;7332193;19;109652;-87
2023/09/06 01:25:32;;;;;;;;;;;19.60;99.90;;;;;;7332194;19;110872;-87
2023/09/06 01:28:00;;;;;;;;;;;19.70;99.90;;;;;;7334879;19;111493;-88
2023/09/06 01:30:28;;;;;;;;;;;19.60;99.90;;;;;;7333733;19;108428;-87
2023/09/06 01:32:55;;;;;;;;;;;19.60;99.90;;;;;;7336825;19;110223;-88
2023/09/06 01:35:22;;;;;;;;;;;19.60;99.90;;;;;;7331784;19;109638;-88
2023/09/06 01:37:52;;;;;;;;;;;19.60;99.90;;;;;;7333372;19;111733;-87
2023/09/06 01:40:21;;;;;;;;;;;19.60;99.90;;;;;;7337558;19;109301;-87
2023/09/06 01:42:58;;;;;;;;;;;19.60;99.90;;;;;;7339494;19;109674;-87
2023/09/06 01:45:27;;;;;;;;;;;19.50;99.90;;;;;;7338455;19;110971;-87
2023/09/06 01:47:54;;;;;;;;;;;19.50;99.90;;;;;;7337282;19;108752;-87
2023/09/06 01:50:22;;;;;;;;;;;19.50;99.90;;;;;;7334770;19;109872;-86
2023/09/06 01:52:49;;;;;;;;;;;19.50;99.90;;;;;;7336550;19;112159;-87
2023/09/06 01:55:16;;;;;;;;;;;19.50;99.90;;;;;;7341634;19;108981;-87
2023/09/06 01:57:44;;;;;;;;;;;19.50;99.90;;;;;;7340011;19;110265;-87
2023/09/06 02:03:07;;;;;;;;;;;19.50;99.90;;;;;;7334135;19;109661;-87
2023/09/06 02:05:35;;;;;;;;;;;19.50;99.90;;;;;;7333494;19;110351;-87
2023/09/06 02:08:04;;;;;;;;;;;19.50;99.90;;;;;;7333093;19;108477;-87
2023/09/06 02:10:31;;;;;;;;;;;19.40;99.90;;;;;;7334088;19;108216;-86
2023/09/06 02:12:59;;;;;;;;;;;19.40;99.90;;;;;;7338916;19;112338;-87
2023/09/06 02:15:26;;;;;;;;;;;19.40;99.90;;;;;;7341873;19;108591;-87
2023/09/06 02:17:53;;;;;;;;;;;19.30;99.90;;;;;;7350511;19;108702;-87
2023/09/06 02:20:20;;;;;;;;;;;19.30;99.90;;;;;;7342826;19;108949;-87
2023/09/06 02:22:51;;;;;;;;;;;19.30;99.90;;;;;;7345083;19;109143;-87
2023/09/06 02:25:21;;;;;;;;;;;19.20;99.90;;;;;;7337573;19;110992;-87
2023/09/06 02:27:48;;;;;;;;;;;19.20;99.90;;;;;;7340893;19;109765;-87
2023/09/06 02:30:17;;;;;;;;;;;19.20;99.90;;;;;;7340449;19;108933;-87
2023/09/06 02:32:44;;;;;;;;;;;19.20;99.90;;;;;;7338015;19;114848;-87
2023/09/06 02:35:11;;;;;;;;;;;19.20;99.90;;;;;;7334470;19;109427;-87
2023/09/06 02:37:38;;;;;;;;;;;19.10;99.90;;;;;;7335443;19;110500;-86
2023/09/06 02:40:13;;;;;;;;;;;19.10;99.90;;;;;;7339143;19;110601;-87
2023/09/06 02:42:41;;;;;;;;;;;19.10;99.90;;;;;;7334938;19;109895;-87
2023/09/06 02:45:11;;;;;;;;;;;19.10;99.90;;;;;;7332829;19;111195;-87
2023/09/06 02:47:47;;;;;;;;;;;19.00;99.90;;;;;;7333370;19;110276;-87
2023/09/06 02:50:23;;;;;;;;;;;19.00;99.90;;;;;;7327307;19;110365;-88
2023/09/06 02:52:52;;;;;;;;;;;18.90;99.90;;;;;;7331317;19;109362;-88
2023/09/06 02:55:21;;;;;;;;;;;18.90;99.90;;;;;;7327741;19;109570;-87
2023/09/06 02:57:49;;;;;;;;;;;18.90;99.90;;;;;;7337403;19;111260;-87
2023/09/06 03:00:25;;;;;;;;;;;18.90;99.90;;;;;;7331780;19;110537;-88
2023/09/06 03:03:06;;;;;;;;;;;18.80;99.90;;;;;;7339908;19;108313;-88
2023/09/06 03:05:43;;;;;;;;;;;18.80;99.90;;;;;;7324837;19;110542;-88
2023/09/06 03:08:12;;;;;;;;;;;18.80;99.90;;;;;;7328431;19;108946;-87
2023/09/06 03:10:40;;;;;;;;;;;18.70;99.90;;;;;;7328705;19;110304;-87
2023/09/06 03:13:09;;;;;;;;;;;18.70;99.90;;;;;;7329330;19;113335;-87
2023/09/06 03:15:43;;;;;;;;;;;18.70;99.90;;;;;;7324306;19;110353;-87
2023/09/06 03:18:11;;;;;;;;;;;18.70;99.90;;;;;;7321306;19;111853;-87
2023/09/06 03:20:45;;;;;;;;;;;18.70;99.90;;;;;;7328393;19;110559;-87
2023/09/06 03:23:21;;;;;;;;;;;18.70;99.90;;;;;;7332448;19;110490;-87
2023/09/06 03:25:54;;;;;;;;;;;18.60;99.90;;;;;;7325335;19;112829;-87
2023/09/06 03:28:22;;;;;;;;;;;18.60;99.90;;;;;;7322843;19;110463;-86
2023/09/06 03:30:51;;;;;;;;;;;18.60;99.90;;;;;;7328260;19;108825;-87
2023/09/06 03:33:19;;;;;;;;;;;18.50;99.90;;;;;;7326883;19;112847;-88
2023/09/06 03:35:48;;;;;;;;;;;18.50;99.90;;;;;;7329147;19;110222;-87
2023/09/06 03:38:17;;;;;;;;;;;18.50;99.90;;;;;;7329836;19;112040;-87
2023/09/06 03:40:45;;;;;;;;;;;18.50;99.90;;;;;;7326919;19;109281;-87
2023/09/06 03:43:15;;;;;;;;;;;18.50;99.90;;;;;;7327145;19;108574;-87
2023/09/06 03:45:46;;;;;;;;;;;18.50;99.90;;;;;;7330638;19;110890;-87
2023/09/06 03:48:13;;;;;;;;;;;18.50;99.90;;;;;;7332075;19;109040;-87
2023/09/06 03:50:41;;;;;;;;;;;18.50;99.90;;;;;;7327507;19;111386;-87
2023/09/06 03:53:08;;;;;;;;;;;18.50;99.90;;;;;;7330423;19;110921;-87
2023/09/06 03:55:37;;;;;;;;;;;18.40;99.90;;;;;;7320732;19;111290;-87
2023/09/06 03:58:07;;;;;;;;;;;18.40;99.90;;;;;;7332118;19;109833;-87
2023/09/06 04:00:34;;;;;;;;;;;18.40;99.90;;;;;;7324436;19;110401;-87
2023/09/06 04:03:03;;;;;;;;;;;18.40;99.90;;;;;;7330916;19;109922;-87
2023/09/06 04:05:32;;;;;;;;;;;18.30;99.90;;;;;;7318375;19;110638;-87
2023/09/06 04:08:00;;;;;;;;;;;18.30;99.90;;;;;;7335062;19;110555;-87
2023/09/06 04:10:44;;;;;;;;;;;18.20;99.90;;;;;;7325448;19;108675;-87
2023/09/06 04:13:12;;;;;;;;;;;18.20;99.90;;;;;;7325989;19;110718;-87
2023/09/06 04:15:42;;;;;;;;;;;18.10;99.90;;;;;;7327274;19;109340;-87
2023/09/06 04:18:11;;;;;;;;;;;18.10;99.90;;;;;;7327137;19;109845;-87
2023/09/06 04:20:39;;;;;;;;;;;18.10;99.90;;;;;;7327577;19;112660;-87
2023/09/06 04:23:07;;;;;;;;;;;18.10;99.90;;;;;;7328145;19;109607;-87
2023/09/06 04:25:44;;;;;;;;;;;18.10;99.90;;;;;;7325088;19;111073;-87
2023/09/06 04:28:13;;;;;;;;;;;18.10;99.90;;;;;;7325173;19;109676;-87
2023/09/06 04:30:41;;;;;;;;;;;18.00;99.90;;;;;;7329216;19;110525;-87
2023/09/06 04:33:15;;;;;;;;;;;18.00;99.90;;;;;;7327815;19;112907;-87
2023/09/06 04:35:46;;;;;;;;;;;18.00;99.90;;;;;;7326964;19;109739;-86
2023/09/06 04:38:14;;;;;;;;;;;18.00;99.90;;;;;;7328946;19;112886;-87
2023/09/06 04:40:45;;;;;;;;;;;18.00;99.90;;;;;;7323757;19;110342;-87
2023/09/06 04:43:13;;;;;;;;;;;17.90;99.90;;;;;;7326226;19;109590;-86
2023/09/06 04:45:40;;;;;;;;;;;17.90;99.90;;;;;;7327596;19;110853;-87
2023/09/06 04:48:11;;;;;;;;;;;17.90;99.90;;;;;;7322265;19;112992;-87
2023/09/06 04:50:39;;;;;;;;;;;17.90;99.90;;;;;;7328050;19;108609;-87
2023/09/06 04:53:11;;;;;;;;;;;17.80;99.90;;;;;;7332109;19;111692;-87
2023/09/06 04:55:39;;;;;;;;;;;17.90;99.90;;;;;;7322409;19;111724;-87
2023/09/06 04:58:08;;;;;;;;;;;17.90;99.90;;;;;;7324914;19;109190;-88
2023/09/06 05:00:38;;;;;;;;;;;17.80;99.90;;;;;;7326500;19;109860;-87
2023/09/06 06:03:39;;;;;;;;;;;18.60;99.90;;;;;;7327701;19;109299;-74
2023/09/06 06:06:10;;;;;;;;;;;18.70;99.90;;;;;;7344649;19;110565;-74
2023/09/06 06:08:38;;;;;;;;;;;18.80;99.90;;;;;;7339732;19;110566;-74
2023/09/06 06:11:05;;;;;;;;;;;18.80;99.90;;;;;;7340227;19;108431;-74
2023/09/06 06:13:37;;;;;;;;;;;19.00;99.90;;;;;;7334892;19;108717;-74
2023/09/06 06:16:06;;;;;;;;;;;19.10;99.90;;;;;;7336434;19;109879;-73
2023/09/06 06:18:34;;;;;;;;;;;19.20;99.90;;;;;;7338947;19;108431;-73
2023/09/06 06:21:01;;;;;;;;;;;19.30;99.90;;;;;;7339814;19;108491;-73
2023/09/06 06:23:28;;;;;;;;;;;19.40;99.90;;;;;;7338241;19;109131;-74
2023/09/06 06:25:55;;;;;;;;;;;19.50;99.90;;;;;;7339233;19;108759;-73
2023/09/06 06:28:22;;;;;;;;;;;19.60;99.90;;;;;;7342770;19;110205;-73
2023/09/06 06:30:49;;;;;;;;;;;19.70;99.90;;;;;;7339490;19;109889;-73
2023/09/06 06:33:16;;;;;;;;;;;19.80;99.90;;;;;;7337650;19;109259;-73
2023/09/06 06:35:44;;;;;;;;;;;19.90;99.90;;;;;;7337145;19;110544;-74
2023/09/06 06:38:11;;;;;;;;;;;20.00;99.90;;;;;;7337717;19;110672;-74
2023/09/06 06:40:38;;;;;;;;;;;20.10;99.90;;;;;;7334578;19;109809;-73
2023/09/06 06:43:06;;;;;;;;;;;20.30;99.90;;;;;;7337992;19;109248;-73
2023/09/06 06:45:33;;;;;;;;;;;20.40;99.90;;;;;;7335881;19;108960;-73
2023/09/06 06:48:01;;;;;;;;;;;20.50;99.90;;;;;;7335612;19;110958;-73
2023/09/06 06:50:28;;;;;;;;;;;20.60;99.90;;;;;;7341323;19;113106;-73
2023/09/06 06:52:55;;;;;;;;;;;20.60;99.90;;;;;;7333457;19;108929;-74
2023/09/06 06:55:23;;;;;;;;;;;20.80;99.90;;;;;;7338225;19;109278;-73
2023/09/06 06:57:50;;;;;;;;;;;20.90;99.90;;;;;;7338077;19;108641;-74
2023/09/06 07:00:17;;;;;;;;;;;21.00;99.90;;;;;;7332977;19;110255;-74
2023/09/06 07:02:45;;;;;;;;;;;21.10;99.90;;;;;;7335359;19;109978;-74
2023/09/06 07:05:12;;;;;;;;;;;21.20;99.90;;;;;;7333916;19;108343;-74
2023/09/06 07:07:40;;;;;;;;;;;21.30;99.90;;;;;;7335012;19;108891;-74
2023/09/06 07:10:07;;;;;;;;;;;21.40;99.90;;;;;;7336082;19;109518;-74
2023/09/06 07:12:35;;;;;;;;;;;21.50;99.90;;;;;;7340488;19;108746;-74
2023/09/06 07:15:03;;;;;;;;;;;21.60;99.90;;;;;;7334965;19;109598;-74
2023/09/06 07:17:31;;;;;;;;;;;21.70;99.90;;;;;;7337653;19;108446;-75
2023/09/06 07:19:59;;;;;;;;;;;21.80;99.90;;;;;;7334162;19;108404;-76
2023/09/06 07:22:26;;;;;;;;;;;21.90;99.90;;;;;;7336780;19;110556;-76
2023/09/06 07:24:53;;;;;;;;;;;22.00;99.90;;;;;;7334492;19;112888;-75
2023/09/06 07:27:21;;;;;;;;;;;22.10;99.90;;;;;;7335239;19;109467;-75
2023/09/06 07:29:48;;;;;;;;;;;22.30;99.90;;;;;;7332628;19;109952;-76
2023/09/06 07:32:15;;;;;;;;;;;22.40;99.90;;;;;;7339679;19;108901;-75
2023/09/06 07:34:42;;;;;;;;;;;22.50;99.90;;;;;;7334669;19;109335;-75
2023/09/06 07:37:10;;;;;;;;;;;22.60;99.90;;;;;;7338337;19;108957;-76
2023/09/06 07:39:37;;;;;;;;;;;22.60;99.90;;;;;;7335714;19;108539;-75
2023/09/06 07:42:05;;;;;;;;;;;22.70;99.90;;;;;;7336122;19;109794;-74
2023/09/06 07:44:32;;;;;;;;;;;22.80;99.90;;;;;;7335683;19;108520;-75
2023/09/06 07:47:00;;;;;;;;;;;22.90;99.90;;;;;;7337196;19;108867;-74
2023/09/06 07:49:28;;;;;;;;;;;23.00;99.90;;;;;;7332886;19;109336;-74
2023/09/06 07:51:56;;;;;;;;;;;23.10;99.90;;;;;;7335032;19;109439;-74
2023/09/06 07:54:23;;;;;;;;;;;23.20;99.90;;;;;;7339820;19;110551;-74
2023/09/06 07:56:51;;;;;;;;;;;23.20;99.90;;;;;;7333940;19;110463;-75
2023/09/06 07:59:20;;;;;;;;;;;23.30;99.90;;;;;;7334189;19;113070;-75
2023/09/06 08:01:47;;;;;;;;;;;23.40;99.90;;;;;;7333426;19;108919;-75
2023/09/06 08:04:18;;;;;;;;;;;23.50;99.90;;;;;;7334145;19;108937;-75
2023/09/06 08:06:46;;;;;;;;;;;23.70;99.90;;;;;;7333623;19;108884;-74
2023/09/06 08:09:14;;;;;;;;;;;23.80;99.90;;;;;;7335930;19;110481;-75
2023/09/06 08:11:41;;;;;;;;;;;23.90;99.90;;;;;;7334427;19;108818;-74
2023/09/06 08:14:08;;;;;;;;;;;24.00;99.90;;;;;;7336263;19;113633;-74
2023/09/06 08:16:35;;;;;;;;;;;24.10;99.90;;;;;;7338142;19;111021;-74
2023/09/06 08:19:03;;;;;;;;;;;24.10;99.90;;;;;;7333868;19;109642;-74
2023/09/06 08:21:30;;;;;;;;;;;24.30;99.90;;;;;;7332558;19;109739;-74
2023/09/06 08:23:57;;;;;;;;;;;24.40;99.90;;;;;;7333721;19;110898;-74
2023/09/06 08:26:25;;;;;;;;;;;24.40;99.90;;;;;;7332837;19;109186;-74
2023/09/06 08:28:52;;;;;;;;;;;24.50;99.90;;;;;;7332653;19;110581;-75
2023/09/06 08:31:19;;;;;;;;;;;24.60;99.90;;;;;;7335015;19;109981;-74
2023/09/06 08:33:47;;;;;;;;;;;24.70;99.90;;;;;;7333606;19;110212;-74
2023/09/06 08:36:14;;;;;;;;;;;24.80;99.90;;;;;;7331951;19;109453;-74
2023/09/06 08:38:42;;;;;;;;;;;24.90;99.90;;;;;;7337910;19;109313;-73
2023/09/06 08:41:09;;;;;;;;;;;25.00;99.90;;;;;;7331125;19;109158;-74
2023/09/06 08:43:41;;;;;;;;;;;25.10;99.90;;;;;;7333364;19;108752;-75
2023/09/06 08:46:21;;;;;;;;;;;25.20;99.90;;;;;;7332470;19;110038;-74
2023/09/06 08:48:49;;;;;;;;;;;25.30;99.90;;;;;;7325874;19;113572;-69
2023/09/06 08:51:16;;;;;;;;;;;25.40;99.90;;;;;;7332964;19;110202;-66
2023/09/06 08:53:44;;;;;;;;;;;25.50;99.90;;;;;;7332067;19;109101;-66
2023/09/06 08:56:12;;;;;;;;;;;25.70;99.90;;;;;;7332902;19;109209;-66
2023/09/06 08:58:40;;;;;;;;;;;25.80;99.90;;;;;;7330883;19;110211;-66
2023/09/06 09:01:08;;;;;;;;;;;25.80;99.90;;;;;;7337284;19;108930;-68
2023/09/06 09:03:35;;;;;;;;;;;25.90;99.90;;;;;;7331548;19;108759;-66
2023/09/06 09:06:08;;;;;;;;;;;26.00;99.90;;;;;;7334211;19;109805;-67
2023/09/06 09:08:36;;;;;;;;;;;26.00;99.90;;;;;;7331623;19;110112;-66
2023/09/06 09:11:11;;;;;;;;;;;26.10;99.90;;;;;;7334332;19;108646;-66
2023/09/06 09:13:38;;;;;;;;;;;26.10;99.90;;;;;;7332178;19;109693;-72
2023/09/06 09:16:07;;;;;;;;;;;26.20;99.90;;;;;;7334104;19;110302;-67
2023/09/06 09:18:36;;;;;;;;;;;26.30;99.90;;;;;;7340017;19;108909;-67
2023/09/06 09:21:03;;;;;;;;;;;26.40;99.90;;;;;;7340402;19;109045;-67
2023/09/06 09:23:32;;;;;;;;;;;26.40;99.90;;;;;;7345375;19;110712;-67
2023/09/06 09:26:00;;;;;;;;;;;26.50;99.90;;;;;;7340007;19;109177;-67
2023/09/06 09:28:28;;;;;;;;;;;26.50;99.90;;;;;;7342011;19;109412;-68
2023/09/06 09:30:57;;;;;;;;;;;26.60;99.90;;;;;;7339651;19;109241;-67
2023/09/06 09:33:28;;;;;;;;;;;26.70;99.90;;;;;;7340947;19;108840;-67
2023/09/06 09:35:55;;;;;;;;;;;26.80;99.90;;;;;;7339044;19;109900;-67
2023/09/06 09:38:23;;;;;;;;;;;26.90;99.90;;;;;;7339264;19;108472;-67
2023/09/06 09:41:05;;;;;;;;;;;26.90;99.90;;;;;;7339973;19;109257;-67
2023/09/06 09:43:33;;;;;;;;;;;27.00;99.90;;;;;;7343382;19;110207;-67
2023/09/06 09:46:02;;;;;;;;;;;27.10;99.90;;;;;;7339887;19;108410;-67
2023/09/06 09:48:30;;;;;;;;;;;27.20;99.90;;;;;;7338602;19;110271;-67
2023/09/06 09:51:00;;;;;;;;;;;27.30;99.90;;;;;;7338443;19;108896;-67
2023/09/06 09:53:30;;;;;;;;;;;27.30;99.90;;;;;;7339452;19;109110;-68
2023/09/06 09:56:00;;;;;;;;;;;27.40;99.90;;;;;;7337257;19;111823;-67
2023/09/06 09:58:27;;;;;;;;;;;27.50;99.90;;;;;;7338659;19;109105;-68
2023/09/06 10:00:56;;;;;;;;;;;27.60;99.90;;;;;;7338906;19;109795;-65
2023/09/06 10:03:27;;;;;;;;;;;27.70;99.90;;;;;;7336542;19;109935;-67
2023/09/06 10:05:56;;;;;;;;;;;27.70;99.90;;;;;;7340696;19;109615;-67
2023/09/06 10:08:24;;;;;;;;;;;27.70;99.90;;;;;;7333907;19;109167;-68
2023/09/06 10:10:51;;;;;;;;;;;27.70;99.90;;;;;;7338750;19;108580;-67
2023/09/06 10:13:19;;;;;;;;;;;27.80;99.90;;;;;;7336284;19;111009;-68
2023/09/06 10:15:47;;;;;;;;;;;27.90;99.90;;;;;;7335833;19;110428;-67
2023/09/06 10:18:14;;;;;;;;;;;28.00;99.90;;;;;;7339150;19;110764;-67
2023/09/06 10:20:43;;;;;;;;;;;28.10;99.90;;;;;;7337822;19;109898;-69
2023/09/06 10:23:12;;;;;;;;;;;28.10;99.90;;;;;;7336005;19;109719;-67
2023/09/06 10:25:40;;;;;;;;;;;28.10;99.90;;;;;;7336959;19;109011;-67
2023/09/06 10:28:08;;;;;;;;;;;28.20;99.90;;;;;;7340185;19;109291;-67
2023/09/06 10:30:46;;;;;;;;;;;28.20;99.90;;;;;;7337377;19;108316;-67
2023/09/06 10:33:29;;;;;;;;;;;28.40;99.90;;;;;;7339530;19;108564;-67
2023/09/06 10:35:58;;;;;;;;;;;28.40;99.90;;;;;;7335227;19;110309;-67
2023/09/06 10:38:27;;;;;;;;;;;28.50;99.90;;;;;;7339410;19;108347;-67
2023/09/06 10:40:54;;;;;;;;;;;28.60;99.90;;;;;;7332562;19;110252;-65
2023/09/06 10:43:42;;;;;;;;;;;28.70;99.90;;;;;;7336403;19;110643;-67
2023/09/06 10:46:09;;;;;;;;;;;28.80;99.90;;;;;;7339103;19;108715;-68
2023/09/06 10:48:37;;;;;;;;;;;28.80;99.90;;;;;;7335426;19;109388;-67
2023/09/06 10:51:08;;;;;;;;;;;28.70;99.90;;;;;;7344374;19;109594;-67
2023/09/06 10:53:36;;;;;;;;;;;28.80;99.90;;;;;;7335470;19;108639;-67
2023/09/06 10:56:05;;;;;;;;;;;28.80;99.90;;;;;;7332226;19;114678;-67
2023/09/06 10:58:36;;;;;;;;;;;28.90;99.90;;;;;;7336473;19;110578;-67
2023/09/06 11:01:12;;;;;;;;;;;29.00;99.90;;;;;;7332428;19;110306;-67
2023/09/06 11:03:41;;;;;;;;;;;29.00;99.90;;;;;;7333211;19;110235;-67
2023/09/06 11:06:09;;;;;;;;;;;29.10;99.90;;;;;;7335624;19;112261;-67
2023/09/06 11:08:38;;;;;;;;;;;29.10;99.90;;;;;;7335875;19;108972;-67
2023/09/06 11:11:09;;;;;;;;;;;29.20;99.90;;;;;;7334514;19;110113;-66
2023/09/06 11:13:37;;;;;;;;;;;29.20;99.90;;;;;;7337706;19;110563;-67
2023/09/06 11:16:10;;;;;;;;;;;29.20;99.90;;;;;;7334025;19;110516;-67
2023/09/06 11:18:46;;;;;;;;;;;29.30;99.90;;;;;;7337704;19;109130;-67
2023/09/06 11:21:20;;;;;;;;;;;29.30;99.90;;;;;;7333634;19;109009;-67
2023/09/06 11:23:49;;;;;;;;;;;29.40;99.90;;;;;;7334760;19;113416;-66
2023/09/06 11:26:17;;;;;;;;;;;29.40;99.90;;;;;;7336496;19;110306;-67
2023/09/06 11:28:44;;;;;;;;;;;29.40;99.90;;;;;;7330697;19;109260;-67
2023/09/06 11:31:23;;;;;;;;;;;29.40;99.90;;;;;;7333171;19;110496;-66
2023/09/06 11:33:55;;;;;;;;;;;29.50;99.90;;;;;;7330837;19;108784;-66
2023/09/06 11:36:24;;;;;;;;;;;29.60;99.90;;;;;;7334605;19;108645;-67
2023/09/06 11:38:53;;;;;;;;;;;29.70;99.90;;;;;;7330725;19;109220;-67
2023/09/06 11:41:21;;;;;;;;;;;29.70;99.90;;;;;;7328604;19;110071;-67
2023/09/06 11:43:51;;;;;;;;;;;29.80;99.90;;;;;;7332381;19;109092;-69
2023/09/06 11:46:18;;;;;;;;;;;29.90;99.90;;;;;;7333231;19;108755;-66
2023/09/06 11:48:47;;;;;;;;;;;30.10;99.90;;;;;;7332385;19;108934;-67
2023/09/06 11:51:17;;;;;;;;;;;30.10;99.90;;;;;;7333834;19;109323;-66
2023/09/06 11:53:54;;;;;;;;;;;30.20;99.90;;;;;;7331114;19;109862;-66
2023/09/06 11:56:29;;;;;;;;;;;30.30;99.90;;;;;;7338291;19;108751;-66
2023/09/06 11:58:59;;;;;;;;;;;30.30;99.90;;;;;;7332024;19;109073;-66
2023/09/06 12:01:26;;;;;;;;;;;30.50;99.90;;;;;;7336105;19;109119;-66
2023/09/06 12:03:58;;;;;;;;;;;30.60;99.90;;;;;;7332454;19;109518;-66
2023/09/06 12:06:27;;;;;;;;;;;30.60;99.90;;;;;;7337588;19;109295;-68
2023/09/06 12:08:54;;;;;;;;;;;30.70;99.90;;;;;;7333252;19;108829;-67
2023/09/06 12:11:24;;;;;;;;;;;30.80;99.90;;;;;;7332684;19;110453;-67
2023/09/06 12:13:51;;;;;;;;;;;30.90;99.90;;;;;;7330971;19;109255;-67
2023/09/06 12:16:19;;;;;;;;;;;31.20;99.90;;;;;;7332920;19;108702;-66
2023/09/06 12:18:47;;;;;;;;;;;31.20;99.90;;;;;;7340335;19;110033;-66
2023/09/06 12:21:14;;;;;;;;;;;31.30;99.90;;;;;;7335466;19;108763;-66
2023/09/06 12:23:42;;;;;;;;;;;31.30;99.90;;;;;;7332799;19;110346;-66
2023/09/06 12:26:09;;;;;;;;;;;31.40;99.90;;;;;;7334825;19;108844;-66
2023/09/06 12:28:36;;;;;;;;;;;31.40;99.90;;;;;;7332866;19;110524;-66
2023/09/06 12:31:05;;;;;;;;;;;31.50;99.60;;;;;;7332553;19;109522;-66
2023/09/06 12:33:45;;;;;;;;;;;31.60;99.90;;;;;;7334590;19;108607;-66
2023/09/06 12:36:13;;;;;;;;;;;31.60;99.50;;;;;;7332941;19;110174;-67
2023/09/06 12:38:42;;;;;;;;;;;31.70;99.30;;;;;;7333003;19;109752;-65
2023/09/06 12:41:09;;;;;;;;;;;31.90;99.10;;;;;;7332284;19;109207;-69
2023/09/06 12:43:37;;;;;;;;;;;32.00;98.80;;;;;;7333021;19;109583;-69
2023/09/06 12:46:07;;;;;;;;;;;32.10;99.10;;;;;;7333574;19;109994;-66
2023/09/06 12:48:37;;;;;;;;;;;32.20;97.60;;;;;;7336597;19;108470;-71
2023/09/06 12:51:07;;;;;;;;;;;32.30;98.40;;;;;;7334349;19;109850;-70
2023/09/06 12:53:34;;;;;;;;;;;32.50;97.80;;;;;;7342674;19;108600;-70
2023/09/06 12:56:02;;;;;;;;;;;32.80;99.00;;;;;;7341151;19;108340;-70
2023/09/06 12:58:30;;;;;;;;;;;33.10;98.30;;;;;;7337180;19;109280;-71
2023/09/06 13:00:59;;;;;;;;;;;33.30;99.00;;;;;;7339782;19;108388;-71
2023/09/06 13:03:26;;;;;;;;;;;33.60;98.40;;;;;;7343852;19;108880;-70
2023/09/06 13:05:55;;;;;;;;;;;33.70;96.70;;;;;;7339636;19;108864;-69
2023/09/06 13:08:22;;;;;;;;;;;33.60;95.50;;;;;;7336539;19;108624;-71
2023/09/06 13:10:50;;;;;;;;;;;33.70;96.20;;;;;;7337583;19;109685;-70
2023/09/06 13:13:17;;;;;;;;;;;33.70;95.20;;;;;;7335572;19;108890;-70
2023/09/06 13:15:44;;;;;;;;;;;33.70;95.10;;;;;;7338568;19;110144;-70
2023/09/06 13:18:11;;;;;;;;;;;33.70;95.50;;;;;;7337936;19;109261;-70
2023/09/06 13:20:38;;;;;;;;;;;33.80;94.90;;;;;;7337734;19;109709;-71
2023/09/06 13:23:06;;;;;;;;;;;34.00;96.30;;;;;;7337131;19;109107;-69
2023/09/06 13:25:35;;;;;;;;;;;34.10;93.40;;;;;;7341257;19;109953;-70
2023/09/06 13:28:04;;;;;;;;;;;34.00;93.30;;;;;;7336146;19;108587;-70
2023/09/06 13:30:32;;;;;;;;;;;34.00;94.50;;;;;;7336529;19;110132;-70
2023/09/06 13:32:59;;;;;;;;;;;34.10;95.00;;;;;;7332720;19;110499;-70
2023/09/06 13:35:26;;;;;;;;;;;34.30;94.80;;;;;;7338127;19;109323;-71
2023/09/06 13:37:54;;;;;;;;;;;34.30;93.50;;;;;;7336955;19;109810;-71
2023/09/06 13:40:22;;;;;;;;;;;34.10;92.30;;;;;;7338880;19;108873;-72
2023/09/06 13:42:49;;;;;;;;;;;33.90;93.10;;;;;;7337488;19;109519;-71
2023/09/06 13:45:17;;;;;;;;;;;33.90;93.70;;;;;;7336585;19;110274;-72
2023/09/06 13:47:44;;;;;;;;;;;34.00;93.80;;;;;;7343543;19;109074;-71
2023/09/06 13:50:12;;;;;;;;;;;34.20;94.20;;;;;;7335074;19;110229;-71
2023/09/06 13:52:39;;;;;;;;;;;34.40;93.20;;;;;;7336715;19;109039;-72
2023/09/06 13:55:06;;;;;;;;;;;34.60;93.30;;;;;;7337586;19;108113;-72
2023/09/06 13:57:33;;;;;;;;;;;34.70;93.00;;;;;;7339510;19;110150;-71
2023/09/06 14:00:04;;;;;;;;;;;34.70;93.90;;;;;;7336545;19;108990;-71
2023/09/06 14:02:34;;;;;;;;;;;34.80;93.30;;;;;;7139621;19;3720160;-71
2023/09/06 14:05:03;;;;;;;;;;;34.80;93.60;;;;;;7336477;19;109311;-71
2023/09/06 14:07:30;;;;;;;;;;;34.70;94.20;;;;;;7343912;19;108512;-72
2023/09/06 14:09:58;;;;;;;;;;;34.60;93.80;;;;;;7336844;19;110243;-71
2023/09/06 14:12:26;;;;;;;;;;;34.60;93.80;;;;;;7340731;19;108669;-71
2023/09/06 14:14:56;;;;;;;;;;;34.60;93.50;;;;;;7335854;19;111613;-71
2023/09/06 14:17:23;;;;;;;;;;;34.60;93.20;;;;;;7339301;19;109760;-72
2023/09/06 14:19:51;;;;;;;;;;;34.70;93.50;;;;;;7337642;19;110079;-72
2023/09/06 14:22:19;;;;;;;;;;;34.70;91.80;;;;;;7339638;19;108742;-72
2023/09/06 14:24:46;;;;;;;;;;;34.70;91.40;;;;;;7335137;19;110978;-71
2023/09/06 14:27:15;;;;;;;;;;;34.70;91.70;;;;;;7340167;19;113714;-71
2023/09/06 14:29:43;;;;;;;;;;;34.80;92.00;;;;;;7339777;19;108403;-71
2023/09/06 14:32:10;;;;;;;;;;;34.70;92.40;;;;;;7335848;19;109115;-71
2023/09/06 14:34:37;;;;;;;;;;;34.80;92.40;;;;;;7338531;19;109311;-71
2023/09/06 14:37:05;;;;;;;;;;;34.70;91.00;;;;;;7337766;19;109858;-71
2023/09/06 14:39:33;;;;;;;;;;;34.60;91.90;;;;;;7337307;19;108943;-71
2023/09/06 14:42:00;;;;;;;;;;;34.70;92.50;;;;;;7337494;19;108750;-70
2023/09/06 14:44:28;;;;;;;;;;;34.80;92.30;;;;;;7332627;19;109070;-70
2023/09/06 14:46:55;;;;;;;;;;;34.90;91.50;;;;;;7336848;19;109202;-69
2023/09/06 14:49:22;;;;;;;;;;;34.90;92.10;;;;;;7339176;19;110356;-71
2023/09/06 14:51:49;;;;;;;;;;;35.00;92.60;;;;;;7340385;19;109601;-71
2023/09/06 14:54:16;;;;;;;;;;;35.10;92.20;;;;;;7337361;19;109480;-71
2023/09/06 14:56:44;;;;;;;;;;;35.10;91.60;;;;;;7336249;19;109162;-70
2023/09/06 14:59:11;;;;;;;;;;;35.00;90.60;;;;;;7336910;19;108910;-68
2023/09/06 15:01:38;;;;;;;;;;;34.90;91.40;;;;;;7336672;19;109328;-69
2023/09/06 15:04:09;;;;;;;;;;;34.90;91.90;;;;;;7335751;19;109509;-67
2023/09/06 15:06:36;;;;;;;;;;;35.00;92.50;;;;;;7336199;19;109045;-69
2023/09/06 15:09:24;;;;;;;;;;;35.10;91.70;;;;;;7337824;19;109376;-69
2023/09/06 15:11:52;;;;;;;;;;;34.90;90.40;;;;;;7336946;19;109219;-68
2023/09/06 15:14:19;;;;;;;;;;;34.90;91.80;;;;;;7341217;19;108840;-69
2023/09/06 15:16:46;;;;;;;;;;;34.90;90.80;;;;;;7337185;19;109269;-73